sensor_id;sensor_type;location;lat;lon;timestamp;pressure;altitude;pressure_sealevel;temperature;humidity
6464;BME280;3265;42.694;23.282;2024-02-21T00:38:00;73776.00;;;-143.21;82.59
6464;BME280;3265;42.694;23.282;2024-02-21T00:40:28;73768.06;;;-143.21;82.75
6464;BME280;3265;42.694;23.282;2024-02-21T00:42:55;73770.06;;;-143.21;82.74
6464;BME280;3265;42.694;23.282;2024-02-21T00:45:24;73772.03;;;-143.21;82.84
6464;BME280;3265;42.694;23.282;2024-02-21T00:48:00;73760.13;;;-143.21;82.73
6464;BME280;3265;42.694;23.282;2024-02-21T00:50:29;73770.06;;;-143.21;82.81
6464;BME280;3265;42.694;23.282;2024-02-21T00:52:57;73764.09;;;-143.21;83.13
6464;BME280;3265;42.694;23.282;2024-02-21T00:55:25;73758.16;;;-143.21;83.24
6464;BME280;3265;42.694;23.282;2024-02-21T00:57:52;73748.22;;;-143.21;82.62
6464;BME280;3265;42.694;23.282;2024-02-21T01:00:19;73732.38;;;-143.21;82.80
6464;BME280;3265;42.694;23.282;2024-02-21T01:02:47;73724.44;;;-143.21;82.66
6464;BME280;3265;42.694;23.282;2024-02-21T01:05:14;73720.47;;;-143.21;82.35
6464;BME280;3265;42.694;23.282;2024-02-21T01:07:41;73700.63;;;-143.21;82.35
6464;BME280;3265;42.694;23.282;2024-02-21T01:10:08;73686.72;;;-143.21;82.05
6464;BME280;3265;42.694;23.282;2024-02-21T01:12:37;73668.88;;;-143.21;81.18
6464;BME280;3265;42.694;23.282;2024-02-21T01:15:05;73664.91;;;-143.21;80.92
6464;BME280;3265;42.694;23.282;2024-02-21T01:17:35;73662.94;;;-143.21;80.68
6464;BME280;3265;42.694;23.282;2024-02-21T01:20:12;73658.97;;;-143.21;80.47
6464;BME280;3265;42.694;23.282;2024-02-21T01:22:39;73655.00;;;-143.21;80.36
6464;BME280;3265;42.694;23.282;2024-02-21T01:25:07;73660.94;;;-143.21;80.24
6464;BME280;3265;42.694;23.282;2024-02-21T01:27:34;73664.91;;;-143.21;79.95
6464;BME280;3265;42.694;23.282;2024-02-21T01:30:03;73651.03;;;-143.21;79.73
6464;BME280;3265;42.694;23.282;2024-02-21T01:32:31;73651.03;;;-143.21;79.42
6464;BME280;3265;42.694;23.282;2024-02-21T01:34:57;73656.97;;;-143.21;79.11
6464;BME280;3265;42.694;23.282;2024-02-21T01:37:33;73676.81;;;-143.21;79.60
6464;BME280;3265;42.694;23.282;2024-02-21T01:40:00;73696.66;;;-143.21;80.21
6464;BME280;3265;42.694;23.282;2024-02-21T01:42:28;73704.59;;;-143.21;80.78
6464;BME280;3265;42.694;23.282;2024-02-21T01:44:55;73702.59;;;-143.21;80.94
6464;BME280;3265;42.694;23.282;2024-02-21T01:47:23;73700.63;;;-143.21;80.37
6464;BME280;3265;42.694;23.282;2024-02-21T01:49:52;73682.75;;;-143.21;80.05
6464;BME280;3265;42.694;23.282;2024-02-21T01:52:21;73678.78;;;-143.21;79.55
6464;BME280;3265;42.694;23.282;2024-02-21T01:54:48;73666.88;;;-143.21;79.40
6464;BME280;3265;42.694;23.282;2024-02-21T01:57:18;73662.94;;;-143.21;79.44
6464;BME280;3265;42.694;23.282;2024-02-21T01:59:45;73651.03;;;-143.21;78.90
6464;BME280;3265;42.694;23.282;2024-02-21T02:02:19;73641.09;;;-143.21;78.40
6464;BME280;3265;42.694;23.282;2024-02-21T02:04:50;73637.13;;;-143.21;78.19
6464;BME280;3265;42.694;23.282;2024-02-21T02:07:18;73631.19;;;-143.21;77.58
6464;BME280;3265;42.694;23.282;2024-02-21T02:09:45;73637.13;;;-143.21;77.72
6464;BME280;3265;42.694;23.282;2024-02-21T02:12:12;73645.06;;;-143.21;77.76
6464;BME280;3265;42.694;23.282;2024-02-21T02:14:42;73649.03;;;-143.21;78.18
6464;BME280;3265;42.694;23.282;2024-02-21T02:17:10;73658.97;;;-143.21;78.53
6464;BME280;3265;42.694;23.282;2024-02-21T02:19:55;73645.06;;;-143.21;78.29
6464;BME280;3265;42.694;23.282;2024-02-21T02:22:28;73655.00;;;-143.21;78.40
6464;BME280;3265;42.694;23.282;2024-02-21T02:24:58;73662.94;;;-143.21;78.38
6464;BME280;3265;42.694;23.282;2024-02-21T02:27:28;73656.97;;;-143.21;78.92
6464;BME280;3265;42.694;23.282;2024-02-21T02:29:55;73668.88;;;-143.21;78.92
6464;BME280;3265;42.694;23.282;2024-02-21T02:32:22;73666.88;;;-143.21;79.50
6464;BME280;3265;42.694;23.282;2024-02-21T02:34:49;73668.88;;;-143.21;79.53
6464;BME280;3265;42.694;23.282;2024-02-21T02:37:15;73690.69;;;-143.21;79.61
6464;BME280;3265;42.694;23.282;2024-02-21T02:39:42;73682.75;;;-143.21;79.61
6464;BME280;3265;42.694;23.282;2024-02-21T02:42:13;73674.81;;;-143.21;79.73
6464;BME280;3265;42.694;23.282;2024-02-21T02:44:40;73658.97;;;-143.21;79.56
6464;BME280;3265;42.694;23.282;2024-02-21T02:47:09;73658.97;;;-143.21;79.01
6464;BME280;3265;42.694;23.282;2024-02-21T02:49:46;73645.06;;;-143.21;78.50
6464;BME280;3265;42.694;23.282;2024-02-21T02:52:16;73651.03;;;-143.21;79.13
6464;BME280;3265;42.694;23.282;2024-02-21T02:54:43;73649.03;;;-143.21;78.91
6464;BME280;3265;42.694;23.282;2024-02-21T02:57:11;73639.13;;;-143.21;78.55
6464;BME280;3265;42.694;23.282;2024-02-21T02:59:38;73637.13;;;-143.21;78.85
6464;BME280;3265;42.694;23.282;2024-02-21T03:02:05;73641.09;;;-143.21;78.87
6464;BME280;3265;42.694;23.282;2024-02-21T03:04:32;73615.31;;;-143.21;77.93
6464;BME280;3265;42.694;23.282;2024-02-21T03:06:58;73627.22;;;-143.21;77.69
6464;BME280;3265;42.694;23.282;2024-02-21T03:09:25;73617.28;;;-143.21;77.69
6464;BME280;3265;42.694;23.282;2024-02-21T03:11:53;73611.34;;;-143.21;77.66
6464;BME280;3265;42.694;23.282;2024-02-21T03:14:23;73621.25;;;-143.21;77.71
6464;BME280;3265;42.694;23.282;2024-02-21T03:16:51;73629.19;;;-143.21;77.17
6464;BME280;3265;42.694;23.282;2024-02-21T03:19:21;73653.00;;;-143.21;77.68
6464;BME280;3265;42.694;23.282;2024-02-21T03:21:48;73658.97;;;-143.21;77.70
6464;BME280;3265;42.694;23.282;2024-02-21T03:24:16;73653.00;;;-143.21;77.98
6464;BME280;3265;42.694;23.282;2024-02-21T03:26:44;73662.94;;;-143.21;77.87
6464;BME280;3265;42.694;23.282;2024-02-21T03:29:11;73662.94;;;-143.21;77.81
6464;BME280;3265;42.694;23.282;2024-02-21T03:31:42;73655.00;;;-143.21;77.69
6464;BME280;3265;42.694;23.282;2024-02-21T03:34:10;73656.97;;;-143.21;77.69
6464;BME280;3265;42.694;23.282;2024-02-21T03:36:37;73643.09;;;-143.21;77.85
6464;BME280;3265;42.694;23.282;2024-02-21T03:39:04;73651.03;;;-143.21;77.48
6464;BME280;3265;42.694;23.282;2024-02-21T03:41:30;73637.13;;;-143.21;77.35
6464;BME280;3265;42.694;23.282;2024-02-21T03:43:57;73629.19;;;-143.21;76.82
6464;BME280;3265;42.694;23.282;2024-02-21T03:46:24;73625.22;;;-143.21;76.60
6464;BME280;3265;42.694;23.282;2024-02-21T03:48:53;73619.28;;;-143.21;76.58
6464;BME280;3265;42.694;23.282;2024-02-21T03:51:22;73619.28;;;-143.21;76.55
6464;BME280;3265;42.694;23.282;2024-02-21T03:53:49;73621.25;;;-143.21;76.19
6464;BME280;3265;42.694;23.282;2024-02-21T03:56:16;73621.25;;;-143.21;76.02
6464;BME280;3265;42.694;23.282;2024-02-21T03:58:43;73623.25;;;-143.21;76.09
6464;BME280;3265;42.694;23.282;2024-02-21T04:01:09;73611.34;;;-143.21;75.42
6464;BME280;3265;42.694;23.282;2024-02-21T04:03:37;73609.34;;;-143.21;75.10
6464;BME280;3265;42.694;23.282;2024-02-21T04:06:09;73609.34;;;-143.21;74.80
6464;BME280;3265;42.694;23.282;2024-02-21T04:08:39;73611.34;;;-143.21;75.11
6464;BME280;3265;42.694;23.282;2024-02-21T04:11:06;73617.28;;;-143.21;75.62
6464;BME280;3265;42.694;23.282;2024-02-21T04:13:33;73627.22;;;-143.21;75.57
6464;BME280;3265;42.694;23.282;2024-02-21T04:16:01;73627.22;;;-143.21;75.73
6464;BME280;3265;42.694;23.282;2024-02-21T04:18:28;73629.19;;;-143.21;75.39
6464;BME280;3265;42.694;23.282;2024-02-21T04:20:55;73627.22;;;-143.21;75.70
6464;BME280;3265;42.694;23.282;2024-02-21T04:23:23;73633.16;;;-143.21;76.08
6464;BME280;3265;42.694;23.282;2024-02-21T04:25:50;73631.19;;;-143.21;75.33
6464;BME280;3265;42.694;23.282;2024-02-21T04:28:17;73633.16;;;-143.21;75.60
6464;BME280;3265;42.694;23.282;2024-02-21T04:30:48;73631.19;;;-143.21;75.73
6464;BME280;3265;42.694;23.282;2024-02-21T04:33:15;73651.03;;;-143.21;76.15
6464;BME280;3265;42.694;23.282;2024-02-21T04:35:42;73660.94;;;-143.21;76.34
6464;BME280;3265;42.694;23.282;2024-02-21T04:38:09;73670.84;;;-143.21;76.64
6464;BME280;3265;42.694;23.282;2024-02-21T04:40:37;73664.91;;;-143.21;76.69
6464;BME280;3265;42.694;23.282;2024-02-21T04:43:04;73662.94;;;-143.21;76.26
6464;BME280;3265;42.694;23.282;2024-02-21T04:45:31;73655.00;;;-143.21;75.93
6464;BME280;3265;42.694;23.282;2024-02-21T04:48:15;73653.00;;;-143.21;75.95
6464;BME280;3265;42.694;23.282;2024-02-21T04:50:44;73658.97;;;-143.21;75.99
6464;BME280;3265;42.694;23.282;2024-02-21T04:53:11;73656.97;;;-143.21;76.68
6464;BME280;3265;42.694;23.282;2024-02-21T04:55:42;73653.00;;;-143.21;76.51
6464;BME280;3265;42.694;23.282;2024-02-21T04:58:09;73678.78;;;-143.21;76.05
6464;BME280;3265;42.694;23.282;2024-02-21T05:00:35;73718.47;;;-143.21;77.59
6464;BME280;3265;42.694;23.282;2024-02-21T05:03:03;73732.38;;;-143.21;78.06
6464;BME280;3265;42.694;23.282;2024-02-21T05:05:29;73734.34;;;-143.21;78.33
6464;BME280;3265;42.694;23.282;2024-02-21T05:07:56;73762.13;;;-143.21;79.19
6464;BME280;3265;42.694;23.282;2024-02-21T05:10:23;73764.09;;;-143.21;79.25
6464;BME280;3265;42.694;23.282;2024-02-21T05:12:52;73764.09;;;-143.21;79.79
6464;BME280;3265;42.694;23.282;2024-02-21T05:15:19;73770.06;;;-143.21;79.68
6464;BME280;3265;42.694;23.282;2024-02-21T05:17:45;73766.09;;;-143.21;79.71
6464;BME280;3265;42.694;23.282;2024-02-21T05:20:15;73756.16;;;-143.21;79.78
6464;BME280;3265;42.694;23.282;2024-02-21T05:22:43;73736.34;;;-143.21;79.74
6464;BME280;3265;42.694;23.282;2024-02-21T05:25:13;73726.41;;;-143.21;78.63
6464;BME280;3265;42.694;23.282;2024-02-21T05:27:42;73716.50;;;-143.21;78.88
6464;BME280;3265;42.694;23.282;2024-02-21T05:30:12;73714.50;;;-143.21;78.48
6464;BME280;3265;42.694;23.282;2024-02-21T05:32:39;73702.59;;;-143.21;78.61
6464;BME280;3265;42.694;23.282;2024-02-21T05:35:06;73686.72;;;-143.21;77.97
6464;BME280;3265;42.694;23.282;2024-02-21T05:37:33;73672.84;;;-143.21;77.45
6464;BME280;3265;42.694;23.282;2024-02-21T05:40:01;73664.91;;;-143.21;77.33
6464;BME280;3265;42.694;23.282;2024-02-21T05:42:27;73655.00;;;-143.21;76.85
6464;BME280;3265;42.694;23.282;2024-02-21T05:44:54;73647.06;;;-143.21;76.49
6464;BME280;3265;42.694;23.282;2024-02-21T05:47:22;73653.00;;;-143.21;76.01
6464;BME280;3265;42.694;23.282;2024-02-21T05:49:57;73649.03;;;-143.21;76.20
6464;BME280;3265;42.694;23.282;2024-02-21T05:52:29;73653.00;;;-143.21;76.01
6464;BME280;3265;42.694;23.282;2024-02-21T05:55:10;73653.00;;;-143.21;75.09
6464;BME280;3265;42.694;23.282;2024-02-21T05:57:37;73684.75;;;-143.21;75.45
6464;BME280;3265;42.694;23.282;2024-02-21T06:00:09;73690.69;;;-143.21;75.43
6464;BME280;3265;42.694;23.282;2024-02-21T06:02:37;73694.66;;;-143.21;75.45
6464;BME280;3265;42.694;23.282;2024-02-21T06:05:04;73728.41;;;-143.21;76.57
6464;BME280;3265;42.694;23.282;2024-02-21T06:07:33;73734.34;;;-143.21;76.85
6464;BME280;3265;42.694;23.282;2024-02-21T06:10:00;73732.38;;;-143.21;76.98
6464;BME280;3265;42.694;23.282;2024-02-21T06:12:27;73720.47;;;-143.21;77.07
6464;BME280;3265;42.694;23.282;2024-02-21T06:14:54;73720.47;;;-143.21;76.64
6464;BME280;3265;42.694;23.282;2024-02-21T06:17:22;73710.53;;;-143.21;76.09
6464;BME280;3265;42.694;23.282;2024-02-21T06:19:51;73706.56;;;-143.21;76.01
6464;BME280;3265;42.694;23.282;2024-02-21T06:22:18;73726.41;;;-143.21;76.05
6464;BME280;3265;42.694;23.282;2024-02-21T06:24:44;73720.47;;;-143.21;76.36
6464;BME280;3265;42.694;23.282;2024-02-21T06:27:11;73716.50;;;-143.21;76.41
6464;BME280;3265;42.694;23.282;2024-02-21T06:29:43;73690.69;;;-143.21;76.08
6464;BME280;3265;42.694;23.282;2024-02-21T06:32:09;73704.59;;;-143.21;75.47
6464;BME280;3265;42.694;23.282;2024-02-21T06:34:36;73686.72;;;-143.21;75.56
6464;BME280;3265;42.694;23.282;2024-02-21T06:37:04;73684.75;;;-143.21;75.37
6464;BME280;3265;42.694;23.282;2024-02-21T06:39:34;73686.72;;;-143.21;75.14
6464;BME280;3265;42.694;23.282;2024-02-21T06:42:03;73672.84;;;-143.21;75.16
6464;BME280;3265;42.694;23.282;2024-02-21T06:44:30;73662.94;;;-143.21;74.89
6464;BME280;3265;42.694;23.282;2024-02-21T06:47:04;73647.06;;;-143.21;74.73
6464;BME280;3265;42.694;23.282;2024-02-21T06:49:31;73641.09;;;-143.21;74.38
6464;BME280;3265;42.694;23.282;2024-02-21T06:51:58;73633.16;;;-143.21;74.59
6464;BME280;3265;42.694;23.282;2024-02-21T06:54:29;73631.19;;;-143.21;74.22
6464;BME280;3265;42.694;23.282;2024-02-21T06:56:56;73623.25;;;-143.21;73.78
6464;BME280;3265;42.694;23.282;2024-02-21T06:59:23;73605.38;;;-143.21;72.81
6464;BME280;3265;42.694;23.282;2024-02-21T07:01:53;73601.41;;;-143.21;72.86
6464;BME280;3265;42.694;23.282;2024-02-21T07:04:25;73619.28;;;-143.21;73.07
6464;BME280;3265;42.694;23.282;2024-02-21T07:06:52;73601.41;;;-143.21;72.43
6464;BME280;3265;42.694;23.282;2024-02-21T07:09:21;73589.53;;;-143.21;71.97
6464;BME280;3265;42.694;23.282;2024-02-21T07:11:49;73597.47;;;-143.21;72.68
6464;BME280;3265;42.694;23.282;2024-02-21T07:14:18;73581.59;;;-143.21;72.40
6464;BME280;3265;42.694;23.282;2024-02-21T07:16:45;73595.47;;;-143.21;72.56
6464;BME280;3265;42.694;23.282;2024-02-21T07:19:12;73577.63;;;-143.21;71.94
6464;BME280;3265;42.694;23.282;2024-02-21T07:21:39;73573.66;;;-143.21;72.41
6464;BME280;3265;42.694;23.282;2024-02-21T07:24:09;73573.66;;;-143.21;72.24
6464;BME280;3265;42.694;23.282;2024-02-21T07:26:40;73585.56;;;-143.21;72.17
6464;BME280;3265;42.694;23.282;2024-02-21T07:29:11;73589.53;;;-143.21;72.08
6464;BME280;3265;42.694;23.282;2024-02-21T07:31:41;73591.50;;;-143.21;72.30
6464;BME280;3265;42.694;23.282;2024-02-21T07:34:09;73573.66;;;-143.21;71.64
6464;BME280;3265;42.694;23.282;2024-02-21T07:36:36;73575.63;;;-143.21;71.45
6464;BME280;3265;42.694;23.282;2024-02-21T07:39:04;73579.59;;;-143.21;71.60
6464;BME280;3265;42.694;23.282;2024-02-21T07:41:31;73565.72;;;-143.21;71.76
6464;BME280;3265;42.694;23.282;2024-02-21T07:43:59;73557.78;;;-143.21;71.87
6464;BME280;3265;42.694;23.282;2024-02-21T07:46:30;73533.97;;;-143.21;71.77
6464;BME280;3265;42.694;23.282;2024-02-21T07:48:56;73528.03;;;-143.21;70.53
6464;BME280;3265;42.694;23.282;2024-02-21T07:51:27;73526.03;;;-143.21;70.63
6464;BME280;3265;42.694;23.282;2024-02-21T07:53:54;73530.00;;;-143.21;70.65
6464;BME280;3265;42.694;23.282;2024-02-21T07:56:21;73528.03;;;-143.21;71.17
6464;BME280;3265;42.694;23.282;2024-02-21T07:58:48;73504.22;;;-143.21;70.99
6464;BME280;3265;42.694;23.282;2024-02-21T08:01:18;73504.22;;;-143.21;70.76
6464;BME280;3265;42.694;23.282;2024-02-21T08:03:47;73496.28;;;-143.21;70.08
6464;BME280;3265;42.694;23.282;2024-02-21T08:06:14;73492.31;;;-143.21;70.55
6464;BME280;3265;42.694;23.282;2024-02-21T08:08:41;73502.22;;;-143.21;70.36
6464;BME280;3265;42.694;23.282;2024-02-21T08:11:08;73512.16;;;-143.21;70.21
6464;BME280;3265;42.694;23.282;2024-02-21T08:13:35;73510.16;;;-143.21;70.61
6464;BME280;3265;42.694;23.282;2024-02-21T08:16:02;73512.16;;;-143.21;71.27
6464;BME280;3265;42.694;23.282;2024-02-21T08:18:30;73494.28;;;-143.21;70.62
6464;BME280;3265;42.694;23.282;2024-02-21T08:21:01;73470.50;;;-143.21;70.86
6464;BME280;3265;42.694;23.282;2024-02-21T08:23:29;73466.53;;;-143.21;70.03
6464;BME280;3265;42.694;23.282;2024-02-21T08:25:56;73464.53;;;-143.21;69.68
6464;BME280;3265;42.694;23.282;2024-02-21T08:28:23;73438.75;;;-143.21;69.92
6464;BME280;3265;42.694;23.282;2024-02-21T08:30:51;73426.84;;;-143.21;68.47
6464;BME280;3265;42.694;23.282;2024-02-21T08:33:18;73422.88;;;-143.21;67.77
6464;BME280;3265;42.694;23.282;2024-02-21T08:35:49;73422.88;;;-143.21;67.69
6464;BME280;3265;42.694;23.282;2024-02-21T08:38:17;73416.94;;;-143.21;67.82
6464;BME280;3265;42.694;23.282;2024-02-21T08:40:45;73410.97;;;-143.21;68.05
6464;BME280;3265;42.694;23.282;2024-02-21T08:43:11;73414.94;;;-143.21;67.57
6464;BME280;3265;42.694;23.282;2024-02-21T08:45:38;73412.97;;;-143.21;67.57
6464;BME280;3265;42.694;23.282;2024-02-21T08:48:06;73410.97;;;-143.21;67.72
6464;BME280;3265;42.694;23.282;2024-02-21T08:50:33;73401.06;;;-143.21;67.94
6464;BME280;3265;42.694;23.282;2024-02-21T08:53:07;73375.25;;;-143.21;66.98
6464;BME280;3265;42.694;23.282;2024-02-21T08:55:37;73373.28;;;-143.21;66.98
6464;BME280;3265;42.694;23.282;2024-02-21T08:58:04;73359.41;;;-143.21;67.24
6464;BME280;3265;42.694;23.282;2024-02-21T09:00:31;73359.41;;;-143.21;66.43
6464;BME280;3265;42.694;23.282;2024-02-21T09:03:03;73371.28;;;-143.21;66.37
6464;BME280;3265;42.694;23.282;2024-02-21T09:05:30;73363.38;;;-143.21;66.43
6464;BME280;3265;42.694;23.282;2024-02-21T09:07:57;73365.34;;;-143.21;66.22
6464;BME280;3265;42.694;23.282;2024-02-21T09:10:23;73367.34;;;-143.21;66.31
6464;BME280;3265;42.694;23.282;2024-02-21T09:12:53;73367.34;;;-143.21;65.08
6464;BME280;3265;42.694;23.282;2024-02-21T09:15:23;73365.34;;;-143.21;65.33
6464;BME280;3265;42.694;23.282;2024-02-21T09:17:50;73377.25;;;-143.21;65.72
6464;BME280;3265;42.694;23.282;2024-02-21T09:20:19;73383.19;;;-143.21;65.76
6464;BME280;3265;42.694;23.282;2024-02-21T09:22:46;73373.28;;;-143.21;65.77
6464;BME280;3265;42.694;23.282;2024-02-21T09:25:13;73357.41;;;-143.21;65.82
6464;BME280;3265;42.694;23.282;2024-02-21T09:27:40;73355.44;;;-143.21;65.14
6464;BME280;3265;42.694;23.282;2024-02-21T09:30:09;73355.44;;;-143.21;64.87
6464;BME280;3265;42.694;23.282;2024-02-21T09:32:36;73361.38;;;-143.21;65.61
6464;BME280;3265;42.694;23.282;2024-02-21T09:35:04;73367.34;;;-143.21;65.35
6464;BME280;3265;42.694;23.282;2024-02-21T09:37:31;73377.25;;;-143.21;65.35
6464;BME280;3265;42.694;23.282;2024-02-21T09:39:58;73375.25;;;-143.21;64.70
6464;BME280;3265;42.694;23.282;2024-02-21T09:42:32;73369.31;;;-143.21;64.65
6464;BME280;3265;42.694;23.282;2024-02-21T09:45:13;73357.41;;;-143.21;64.07
6464;BME280;3265;42.694;23.282;2024-02-21T09:47:50;73337.56;;;-143.21;63.75
6464;BME280;3265;42.694;23.282;2024-02-21T09:50:19;73321.72;;;-143.21;63.68
6464;BME280;3265;42.694;23.282;2024-02-21T09:52:48;73282.03;;;-143.21;63.53
6464;BME280;3265;42.694;23.282;2024-02-21T09:55:33;73232.44;;;-143.21;61.65
6464;BME280;3265;42.694;23.282;2024-02-21T09:58:01;73204.66;;;-143.21;60.57
6464;BME280;3265;42.694;23.282;2024-02-21T10:00:30;73194.75;;;-143.21;59.88
6464;BME280;3265;42.694;23.282;2024-02-21T10:02:58;73242.34;;;-143.21;59.79
6464;BME280;3265;42.694;23.282;2024-02-21T10:05:25;73256.25;;;-143.21;60.42
6464;BME280;3265;42.694;23.282;2024-02-21T10:07:52;73276.06;;;-143.21;61.08
6464;BME280;3265;42.694;23.282;2024-02-21T10:10:23;73266.16;;;-143.21;61.01
6464;BME280;3265;42.694;23.282;2024-02-21T10:13:10;73278.06;;;-143.21;60.94
6464;BME280;3265;42.694;23.282;2024-02-21T10:15:39;73270.13;;;-143.21;60.70
6464;BME280;3265;42.694;23.282;2024-02-21T10:18:10;73268.16;;;-143.21;nan
6464;BME280;3265;42.694;23.282;2024-02-21T10:20:37;73240.38;;;-143.21;59.06
6464;BME280;3265;42.694;23.282;2024-02-21T10:23:05;73157.06;;;-143.21;57.45
6464;BME280;3265;42.694;23.282;2024-02-21T10:25:34;73081.69;;;-143.21;56.58
6464;BME280;3265;42.694;23.282;2024-02-21T10:28:04;73010.28;;;-143.21;54.31
6464;BME280;3265;42.694;23.282;2024-02-21T10:30:30;72998.38;;;-143.21;54.19
6464;BME280;3265;42.694;23.282;2024-02-21T10:32:59;72938.88;;;-143.21;53.78
6464;BME280;3265;42.694;23.282;2024-02-21T10:35:29;72851.59;;;-143.21;52.83
6464;BME280;3265;42.694;23.282;2024-02-21T10:38:02;72740.53;;;-143.21;50.70
6464;BME280;3265;42.694;23.282;2024-02-21T10:40:29;72696.88;;;-143.21;48.25
6464;BME280;3265;42.694;23.282;2024-02-21T10:45:44;72730.59;;;-143.21;49.20
6464;BME280;3265;42.694;23.282;2024-02-21T10:48:14;72720.69;;;-143.21;48.63
6464;BME280;3265;42.694;23.282;2024-02-21T10:51:06;72649.28;;;-143.21;48.00
6464;BME280;3265;42.694;23.282;2024-02-21T10:53:44;72573.91;;;-143.21;46.56
6464;BME280;3265;42.694;23.282;2024-02-21T10:56:22;72470.78;;;-143.21;44.58
6464;BME280;3265;42.694;23.282;2024-02-21T10:58:52;72564.00;;;-143.21;44.78
6464;BME280;3265;42.694;23.282;2024-02-21T11:01:25;72629.44;;;-143.21;46.11
6464;BME280;3265;42.694;23.282;2024-02-21T11:03:57;72677.06;;;-143.21;45.97
6464;BME280;3265;42.694;23.282;2024-02-21T11:06:26;72681.03;;;-143.21;45.79
6464;BME280;3265;42.694;23.282;2024-02-21T11:09:03;72734.56;;;-143.21;46.19
6464;BME280;3265;42.694;23.282;2024-02-21T11:11:33;72716.72;;;-143.21;46.63
6464;BME280;3265;42.694;23.282;2024-02-21T11:14:08;72686.97;;;-143.21;45.66
6464;BME280;3265;42.694;23.282;2024-02-21T11:16:41;72692.91;;;-143.21;45.75
6464;BME280;3265;42.694;23.282;2024-02-21T11:19:21;72738.53;;;-143.21;45.08
6464;BME280;3265;42.694;23.282;2024-02-21T11:21:49;72796.06;;;-143.21;45.82
6464;BME280;3265;42.694;23.282;2024-02-21T11:24:27;72841.69;;;-143.21;46.53
6464;BME280;3265;42.694;23.282;2024-02-21T11:26:55;72891.25;;;-143.21;47.55
6464;BME280;3265;42.694;23.282;2024-02-21T11:29:23;72921.00;;;-143.21;48.18
6464;BME280;3265;42.694;23.282;2024-02-21T11:31:51;72940.84;;;-143.21;48.56
6464;BME280;3265;42.694;23.282;2024-02-21T11:34:19;73000.34;;;-143.21;49.36
6464;BME280;3265;42.694;23.282;2024-02-21T11:36:48;73032.09;;;-143.21;50.52
6464;BME280;3265;42.694;23.282;2024-02-21T11:39:20;73038.03;;;-143.21;50.54
6464;BME280;3265;42.694;23.282;2024-02-21T11:41:48;73034.06;;;-143.21;50.75
6464;BME280;3265;42.694;23.282;2024-02-21T11:44:25;73044.00;;;-143.21;50.73
6464;BME280;3265;42.694;23.282;2024-02-21T11:46:52;73057.88;;;-143.21;51.33
6464;BME280;3265;42.694;23.282;2024-02-21T11:49:18;73057.88;;;-143.21;51.94
6464;BME280;3265;42.694;23.282;2024-02-21T11:51:57;73073.75;;;-143.21;51.65
6464;BME280;3265;42.694;23.282;2024-02-21T11:57:04;73079.69;;;-143.21;52.72
6464;BME280;3265;42.694;23.282;2024-02-21T11:59:32;73095.56;;;-143.21;52.82
6464;BME280;3265;42.694;23.282;2024-02-21T12:01:59;73099.53;;;-143.21;53.40
6464;BME280;3265;42.694;23.282;2024-02-21T12:04:28;73109.44;;;-143.21;53.71
6464;BME280;3265;42.694;23.282;2024-02-21T12:06:57;73105.47;;;-143.21;54.03
6464;BME280;3265;42.694;23.282;2024-02-21T12:09:25;73113.41;;;-143.21;54.03
6464;BME280;3265;42.694;23.282;2024-02-21T12:12:00;73107.47;;;-143.21;53.91
6464;BME280;3265;42.694;23.282;2024-02-21T12:14:31;73109.44;;;-143.21;54.20
6464;BME280;3265;42.694;23.282;2024-02-21T12:16:58;73105.47;;;-143.21;54.06
6464;BME280;3265;42.694;23.282;2024-02-21T12:19:29;73113.41;;;-143.21;53.53
6464;BME280;3265;42.694;23.282;2024-02-21T12:21:58;73109.44;;;-143.21;53.26
6464;BME280;3265;42.694;23.282;2024-02-21T12:24:27;73099.53;;;-143.21;52.73
6464;BME280;3265;42.694;23.282;2024-02-21T12:26:56;73105.47;;;-143.21;53.20
6464;BME280;3265;42.694;23.282;2024-02-21T12:29:24;73095.56;;;-143.21;53.31
6464;BME280;3265;42.694;23.282;2024-02-21T12:31:51;73093.59;;;-143.21;52.78
6464;BME280;3265;42.694;23.282;2024-02-21T12:34:19;73119.38;;;-143.21;52.51
6464;BME280;3265;42.694;23.282;2024-02-21T12:36:47;73123.34;;;-143.21;52.44
6464;BME280;3265;42.694;23.282;2024-02-21T12:39:15;73123.34;;;-143.21;52.27
6464;BME280;3265;42.694;23.282;2024-02-21T12:41:43;73111.44;;;-143.21;52.46
6464;BME280;3265;42.694;23.282;2024-02-21T12:44:12;73107.47;;;-143.21;53.11
6464;BME280;3265;42.694;23.282;2024-02-21T12:46:40;73119.38;;;-143.21;54.13
6464;BME280;3265;42.694;23.282;2024-02-21T12:49:07;73099.53;;;-143.21;54.43
6464;BME280;3265;42.694;23.282;2024-02-21T12:51:34;73091.59;;;-143.21;55.11
6464;BME280;3265;42.694;23.282;2024-02-21T12:54:04;73087.63;;;-143.21;56.37
6464;BME280;3265;42.694;23.282;2024-02-21T12:56:32;73077.72;;;-143.21;56.77
6464;BME280;3265;42.694;23.282;2024-02-21T12:58:59;73059.88;;;-143.21;56.78
6464;BME280;3265;42.694;23.282;2024-02-21T13:01:32;73053.91;;;-143.21;56.45
6464;BME280;3265;42.694;23.282;2024-02-21T13:03:59;73049.94;;;-143.21;55.52
6464;BME280;3265;42.694;23.282;2024-02-21T13:06:27;73063.84;;;-143.21;56.31
6464;BME280;3265;42.694;23.282;2024-02-21T13:08:53;73059.88;;;-143.21;56.16
6464;BME280;3265;42.694;23.282;2024-02-21T13:11:20;73049.94;;;-143.21;56.42
6464;BME280;3265;42.694;23.282;2024-02-21T13:13:49;73040.03;;;-143.21;56.55
6464;BME280;3265;42.694;23.282;2024-02-21T13:16:15;73028.13;;;-143.21;56.81
6464;BME280;3265;42.694;23.282;2024-02-21T13:18:42;73010.28;;;-143.21;57.31
6464;BME280;3265;42.694;23.282;2024-02-21T13:21:10;73026.16;;;-143.21;57.26
6464;BME280;3265;42.694;23.282;2024-02-21T13:23:37;73028.13;;;-143.21;57.20
6464;BME280;3265;42.694;23.282;2024-02-21T13:26:07;73057.88;;;-143.21;57.44
6464;BME280;3265;42.694;23.282;2024-02-21T13:28:35;73061.84;;;-143.21;57.62
6464;BME280;3265;42.694;23.282;2024-02-21T13:31:03;73047.97;;;-143.21;57.32
6464;BME280;3265;42.694;23.282;2024-02-21T13:33:31;73057.88;;;-143.21;56.49
6464;BME280;3265;42.694;23.282;2024-02-21T13:35:58;73065.81;;;-143.21;55.91
6464;BME280;3265;42.694;23.282;2024-02-21T13:38:27;73073.75;;;-143.21;55.82
6464;BME280;3265;42.694;23.282;2024-02-21T13:40:54;73085.66;;;-143.21;56.35